Time;durP1;ratioP1;P1;durP2;ratioP2;P2;SDS_P1;SDS_P2;PMS_P1;PMS_P2;Temp;Humidity;BMP_temperature;BMP_pressure;BME280_temperature;BME280_humidity;BME280_pressure;Samples;Min_cycle;Max_cycle;Signal;HPM_P1;HPM_P2
2024/03/05 00:00:26;;;;;;;1.77;1.43;;;22.30;68.50;;;;;;4982212;28;20876;-68
2024/03/05 00:02:53;;;;;;;3.10;1.93;;;22.20;68.20;;;;;;4988204;28;20464;-68
2024/03/05 00:05:20;;;;;;;1.57;1.40;;;22.30;68.50;;;;;;4983632;28;21139;-68
2024/03/05 00:07:46;;;;;;;2.03;1.50;;;22.30;68.60;;;;;;4982677;28;20488;-70
2024/03/05 00:10:13;;;;;;;3.00;2.07;;;22.10;68.20;;;;;;4988444;28;20463;-69
2024/03/05 00:12:40;;;;;;;2.70;1.90;;;22.30;68.60;;;;;;4988268;28;20514;-68
2024/03/05 00:15:07;;;;;;;2.33;1.63;;;22.20;68.40;;;;;;4990304;28;20813;-69
2024/03/05 00:17:36;;;;;;;2.00;1.47;;;22.20;68.50;;;;;;4982221;28;20473;-69
2024/03/05 00:20:04;;;;;;;2.90;1.90;;;22.00;68.20;;;;;;4984750;28;20744;-69
2024/03/05 00:22:30;;;;;;;3.00;2.17;;;22.20;68.50;;;;;;4987445;28;20935;-68
2024/03/05 00:24:58;;;;;;;2.60;1.63;;;22.10;68.50;;;;;;4984994;28;20455;-68
2024/03/05 00:27:25;;;;;;;2.57;1.73;;;22.00;68.40;;;;;;4987212;28;20456;-68
2024/03/05 00:29:52;;;;;;;3.63;2.33;;;22.10;68.50;;;;;;4987143;28;20498;-68
2024/03/05 00:32:19;;;;;;;2.03;1.83;;;22.20;69.10;;;;;;4983843;28;20466;-68
2024/03/05 00:34:47;;;;;;;2.73;1.87;;;22.10;68.50;;;;;;4983216;28;20460;-68
2024/03/05 00:37:14;;;;;;;2.70;1.83;;;22.10;68.60;;;;;;4981014;28;20977;-68
2024/03/05 00:39:40;;;;;;;2.73;1.80;;;22.10;68.70;;;;;;4988797;28;21343;-68
2024/03/05 00:42:08;;;;;;;2.53;1.80;;;22.10;68.60;;;;;;4981772;28;20460;-68
2024/03/05 00:44:34;;;;;;;1.73;1.50;;;22.00;68.50;;;;;;4985980;28;20523;-69
2024/03/05 00:47:01;;;;;;;2.00;1.30;;;22.10;68.70;;;;;;4988560;28;20459;-68
2024/03/05 00:49:28;;;;;;;1.53;1.30;;;22.00;68.60;;;;;;4986316;28;20487;-68
2024/03/05 00:51:56;;;;;;;2.93;1.80;;;22.00;69.30;;;;;;4982569;28;20773;-68
2024/03/05 00:54:24;;;;;;;3.20;2.10;;;21.90;68.60;;;;;;4982798;28;20711;-69
2024/03/05 00:56:51;;;;;;;3.07;1.67;;;22.40;69.20;;;;;;4984043;28;20558;-68
2024/03/05 00:59:18;;;;;;;1.90;1.40;;;21.90;68.70;;;;;;4985226;28;20932;-69
2024/03/05 01:01:45;;;;;;;1.80;1.50;;;22.00;68.70;;;;;;4980825;28;20459;-68
2024/03/05 01:04:11;;;;;;;1.93;1.73;;;21.90;68.60;;;;;;4981669;28;20464;-68
2024/03/05 01:06:38;;;;;;;2.85;1.77;;;21.90;68.60;;;;;;4986447;28;20458;-69
2024/03/05 01:09:11;;;;;;;3.70;1.63;;;21.90;68.70;;;;;;4981621;28;20227;-68
2024/03/05 01:11:38;;;;;;;2.20;1.60;;;21.90;68.70;;;;;;4983652;28;20522;-68
2024/03/05 01:14:05;;;;;;;2.07;1.43;;;21.90;68.80;;;;;;4987615;28;20463;-68
2024/03/05 01:16:31;;;;;;;2.37;1.80;;;21.90;68.80;;;;;;4982476;28;20478;-68
2024/03/05 01:18:59;;;;;;;2.17;1.98;;;21.80;68.70;;;;;;4988233;28;20471;-68
2024/03/05 01:21:26;;;;;;;3.20;1.97;;;21.90;69.00;;;;;;4983678;28;20199;-68
2024/03/05 01:23:53;;;;;;;2.13;1.73;;;21.80;68.80;;;;;;4981641;28;20457;-68
2024/03/05 01:26:21;;;;;;;2.22;1.60;;;21.60;68.70;;;;;;4982136;28;20994;-68
2024/03/05 01:28:49;;;;;;;1.93;1.37;;;21.80;68.80;;;;;;4985829;28;20878;-68
2024/03/05 01:31:16;;;;;;;1.42;1.33;;;21.60;68.60;;;;;;4981217;28;20597;-68
2024/03/05 01:33:43;;;;;;;2.05;1.85;;;21.80;68.80;;;;;;4987457;28;20193;-68
2024/03/05 01:36:11;;;;;;;1.90;1.60;;;21.70;68.80;;;;;;4985546;28;20310;-68
2024/03/05 01:38:37;;;;;;;2.93;1.50;;;21.70;68.80;;;;;;4981959;28;20941;-68
2024/03/05 01:41:05;;;;;;;2.40;2.03;;;21.70;68.90;;;;;;4984507;28;20469;-68
2024/03/05 01:43:33;;;;;;;2.53;2.33;;;21.70;68.90;;;;;;4984576;28;20555;-68
2024/03/05 01:46:00;;;;;;;1.88;1.60;;;21.80;69.00;;;;;;4985815;28;20945;-68
2024/03/05 01:48:28;;;;;;;1.92;1.50;;;22.00;69.30;;;;;;4987594;28;20229;-68
2024/03/05 01:50:56;;;;;;;1.93;1.77;;;21.50;68.70;;;;;;4985185;28;20200;-68
2024/03/05 01:53:24;;;;;;;1.60;1.50;;;21.70;69.00;;;;;;4985013;28;20952;-68
2024/03/05 01:55:53;;;;;;;2.20;1.77;;;21.60;68.80;;;;;;4984362;28;20593;-69
2024/03/05 01:58:21;;;;;;;1.30;1.10;;;21.60;68.90;;;;;;4986357;28;20875;-68
2024/03/05 02:00:49;;;;;;;2.88;2.00;;;21.60;68.90;;;;;;4984699;28;20475;-68
2024/03/05 02:03:17;;;;;;;1.85;1.63;;;21.50;68.80;;;;;;4980449;28;20736;-68
2024/03/05 02:05:46;;;;;;;2.33;1.70;;;21.60;68.90;;;;;;4979984;28;20208;-68
2024/03/05 02:08:13;;;;;;;2.33;1.77;;;21.60;69.00;;;;;;4985002;28;20466;-68
2024/03/05 02:10:39;;;;;;;1.98;1.52;;;21.60;69.20;;;;;;4985369;28;20296;-68
2024/03/05 02:13:09;;;;;;;1.60;1.50;;;21.60;69.10;;;;;;4983312;28;20218;-68
2024/03/05 02:15:36;;;;;;;1.73;1.63;;;21.50;69.00;;;;;;4983531;28;20220;-68
2024/03/05 02:18:05;;;;;;;2.47;1.80;;;21.50;69.00;;;;;;4986311;28;20204;-68
2024/03/05 02:20:32;;;;;;;2.20;2.00;;;21.50;69.00;;;;;;4984976;28;20205;-68
2024/03/05 02:23:02;;;;;;;1.77;1.65;;;21.50;69.10;;;;;;4982469;28;20464;-68
2024/03/05 02:25:30;;;;;;;3.65;2.08;;;21.50;69.20;;;;;;4981772;28;20735;-67
2024/03/05 02:27:57;;;;;;;2.20;2.00;;;21.30;68.90;;;;;;4984990;28;20247;-68
2024/03/05 02:30:23;;;;;;;1.60;1.47;;;21.70;69.30;;;;;;4986360;28;20229;-68
2024/03/05 02:32:51;;;;;;;1.63;1.48;;;21.50;69.10;;;;;;4983182;28;20481;-68
2024/03/05 02:35:18;;;;;;;2.50;1.50;;;21.50;69.10;;;;;;4979583;28;20204;-68
2024/03/05 02:37:45;;;;;;;1.88;1.70;;;21.40;69.00;;;;;;4972984;28;20208;-68
2024/03/05 02:40:14;;;;;;;1.80;1.70;;;21.90;69.60;;;;;;4975222;28;20211;-68
2024/03/05 02:42:41;;;;;;;1.73;1.42;;;21.30;69.00;;;;;;4973295;28;20307;-68
2024/03/05 02:45:10;;;;;;;1.85;1.65;;;21.30;69.00;;;;;;4977078;28;20196;-68
2024/03/05 02:47:40;;;;;;;2.55;1.90;;;21.40;69.10;;;;;;4981469;28;20196;-68
2024/03/05 02:50:09;;;;;;;2.00;1.83;;;21.30;69.00;;;;;;4980511;28;20283;-68
2024/03/05 02:52:35;;;;;;;1.80;1.70;;;21.40;69.20;;;;;;4986483;28;20217;-67
2024/03/05 02:55:03;;;;;;;2.00;1.80;;;21.20;68.90;;;;;;4987781;28;20201;-67
2024/03/05 02:57:31;;;;;;;2.30;1.85;;;21.30;69.10;;;;;;4990565;28;20201;-68
2024/03/05 02:59:58;;;;;;;2.10;1.60;;;21.30;69.10;;;;;;4986916;28;20258;-68
2024/03/05 03:02:24;;;;;;;1.77;1.67;;;21.40;69.20;;;;;;4987352;28;20349;-67
2024/03/05 03:04:51;;;;;;;2.70;1.75;;;21.10;69.10;;;;;;4987193;28;20204;-68
2024/03/05 03:07:17;;;;;;;3.08;1.80;;;21.30;69.20;;;;;;4980615;28;21003;-68
2024/03/05 03:09:46;;;;;;;1.77;1.67;;;21.30;69.30;;;;;;4987660;28;20607;-68
2024/03/05 03:12:12;;;;;;;1.58;1.45;;;21.30;69.30;;;;;;4989532;28;20204;-68
2024/03/05 03:14:44;;;;;;;2.45;1.70;;;21.30;69.20;;;;;;4987689;28;20216;-68
2024/03/05 03:17:10;;;;;;;1.60;1.40;;;21.10;69.00;;;;;;4988856;28;20202;-68
2024/03/05 03:19:37;;;;;;;1.80;1.60;;;21.50;69.50;;;;;;4987763;28;20201;-68
2024/03/05 03:22:04;;;;;;;2.00;1.50;;;21.10;69.00;;;;;;4988665;28;20200;-68
2024/03/05 03:24:31;;;;;;;2.38;1.88;;;21.30;69.20;;;;;;4988511;28;21011;-68
2024/03/05 03:26:57;;;;;;;2.47;1.40;;;21.00;69.10;;;;;;4986135;28;20208;-68
2024/03/05 03:29:26;;;;;;;1.95;1.52;;;21.30;69.30;;;;;;4986386;28;20224;-68
2024/03/05 03:31:56;;;;;;;1.40;1.27;;;21.20;69.30;;;;;;4988692;28;20197;-68
2024/03/05 03:34:22;;;;;;;3.47;2.00;;;21.60;69.70;;;;;;4987504;28;21143;-68
2024/03/05 03:36:49;;;;;;;2.30;1.85;;;21.30;69.60;;;;;;4986592;28;20199;-68
2024/03/05 03:39:23;;;;;;;2.45;1.50;;;21.20;69.20;;;;;;4982625;28;21022;-68
2024/03/05 03:41:53;;;;;;;2.10;1.67;;;20.70;68.80;;;;;;4989502;28;20208;-68
2024/03/05 03:44:20;;;;;;;2.00;1.67;;;21.20;69.20;;;;;;4988853;28;20205;-67
2024/03/05 03:46:46;;;;;;;1.73;1.50;;;21.30;69.50;;;;;;4983393;28;20207;-67
2024/03/05 03:49:16;;;;;;;1.90;1.40;;;21.20;69.30;;;;;;4983973;28;20224;-67
2024/03/05 03:51:44;;;;;;;1.60;1.50;;;21.00;69.20;;;;;;4990389;28;20672;-67
2024/03/05 03:54:10;;;;;;;2.05;1.80;;;21.10;69.30;;;;;;4986747;28;20209;-68
2024/03/05 03:56:37;;;;;;;1.90;1.80;;;21.20;69.30;;;;;;4980458;28;20620;-67
2024/03/05 03:59:04;;;;;;;2.05;1.50;;;21.20;69.50;;;;;;4984298;28;20201;-68
2024/03/05 04:01:31;;;;;;;2.72;2.47;;;21.10;69.30;;;;;;4984989;28;20207;-68
2024/03/05 04:03:58;;;;;;;1.95;1.60;;;20.90;69.10;;;;;;4987810;28;20201;-68
2024/03/05 04:06:28;;;;;;;2.92;1.60;;;21.10;69.30;;;;;;4983749;28;20428;-68
2024/03/05 04:08:55;;;;;;;2.28;2.00;;;21.40;69.70;;;;;;4982973;28;20212;-68
2024/03/05 04:11:22;;;;;;;2.17;1.88;;;21.00;69.30;;;;;;4985182;28;20205;-68
2024/03/05 04:13:49;;;;;;;1.95;1.75;;;21.10;69.30;;;;;;4986429;28;20308;-68
2024/03/05 04:16:15;;;;;;;1.70;1.40;;;21.60;70.00;;;;;;4989056;28;20327;-68
2024/03/05 04:18:45;;;;;;;1.80;1.38;;;21.10;69.40;;;;;;4988125;28;20585;-68
2024/03/05 04:21:12;;;;;;;2.45;1.75;;;21.10;69.30;;;;;;4982711;28;20188;-67
2024/03/05 04:23:40;;;;;;;1.40;1.20;;;21.30;70.40;;;;;;4985083;28;20197;-68
2024/03/05 04:26:13;;;;;;;1.90;1.40;;;21.00;69.30;;;;;;4981239;28;20804;-67
2024/03/05 04:28:48;;;;;;;1.50;1.40;;;21.00;69.40;;;;;;4984716;28;20482;-67
2024/03/05 04:31:16;;;;;;;1.90;1.70;;;21.00;69.40;;;;;;4981277;28;20282;-68
2024/03/05 04:33:43;;;;;;;3.00;1.50;;;21.50;69.80;;;;;;4982717;28;20288;-68
2024/03/05 04:36:14;;;;;;;1.48;1.30;;;21.00;69.30;;;;;;4980559;28;20732;-68
2024/03/05 04:38:43;;;;;;;1.70;1.60;;;21.00;69.30;;;;;;4985466;28;20220;-67
2024/03/05 04:41:13;;;;;;;1.92;1.70;;;21.00;69.40;;;;;;4982395;28;20287;-67
2024/03/05 04:43:40;;;;;;;1.50;1.40;;;21.10;69.60;;;;;;4984098;28;20236;-67
2024/03/05 04:46:07;;;;;;;2.25;1.90;;;20.80;69.20;;;;;;4984236;28;20745;-68
2024/03/05 04:48:34;;;;;;;2.00;1.67;;;21.00;69.50;;;;;;4987141;28;20193;-68
2024/03/05 04:51:01;;;;;;;1.75;1.35;;;21.20;70.50;;;;;;4985887;28;20520;-68
2024/03/05 04:53:28;;;;;;;2.67;1.50;;;21.10;69.60;;;;;;4986842;28;20657;-68
2024/03/05 04:55:56;;;;;;;2.08;1.52;;;21.10;69.70;;;;;;4984479;28;20200;-67
2024/03/05 04:58:22;;;;;;;1.80;1.60;;;20.90;69.50;;;;;;4988024;28;20192;-68
2024/03/05 05:00:49;;;;;;;1.83;1.42;;;21.00;69.60;;;;;;4973418;28;20203;-67
2024/03/05 05:03:16;;;;;;;2.00;1.80;;;21.00;70.40;;;;;;4983777;28;20649;-68
2024/03/05 05:05:43;;;;;;;1.85;1.60;;;21.00;69.40;;;;;;4986256;28;20536;-68
2024/03/05 05:08:11;;;;;;;1.90;1.33;;;21.00;69.50;;;;;;4985037;28;20250;-67
2024/03/05 05:10:38;;;;;;;1.55;1.40;;;20.90;69.40;;;;;;4987568;28;20503;-67
2024/03/05 05:13:06;;;;;;;1.92;1.63;;;20.90;69.50;;;;;;4987109;28;20208;-67
2024/03/05 05:15:34;;;;;;;2.13;1.83;;;21.00;69.70;;;;;;4984602;28;20199;-68
2024/03/05 05:18:01;;;;;;;1.90;1.77;;;21.40;70.00;;;;;;4985238;28;20296;-68
2024/03/05 05:20:28;;;;;;;1.48;1.25;;;20.60;69.20;;;;;;4983909;28;20292;-68
2024/03/05 05:22:54;;;;;;;1.70;1.48;;;21.00;69.60;;;;;;4982241;28;20202;-68
2024/03/05 05:25:23;;;;;;;1.58;1.40;;;20.90;69.50;;;;;;4983787;28;20665;-68
2024/03/05 05:27:50;;;;;;;1.60;1.50;;;20.90;69.50;;;;;;4978407;28;20196;-67
2024/03/05 05:30:19;;;;;;;1.75;1.48;;;20.70;69.20;;;;;;4977236;28;20231;-67
2024/03/05 05:32:47;;;;;;;1.55;1.40;;;20.80;69.40;;;;;;4976893;28;20822;-68
2024/03/05 05:35:14;;;;;;;1.63;1.52;;;20.90;69.50;;;;;;4985328;28;20197;-68
2024/03/05 05:37:41;;;;;;;1.38;1.27;;;20.70;69.40;;;;;;4981669;28;20211;-68
2024/03/05 05:40:11;;;;;;;1.58;1.38;;;20.80;69.40;;;;;;4981299;28;20228;-68
2024/03/05 05:42:38;;;;;;;1.50;1.30;;;20.90;69.60;;;;;;4981031;28;20296;-68
2024/03/05 05:45:08;;;;;;;1.60;1.33;;;20.90;69.60;;;;;;4981885;28;20771;-68
2024/03/05 05:47:38;;;;;;;2.63;1.50;;;20.90;69.50;;;;;;4980915;28;20197;-68
2024/03/05 05:50:18;;;;;;;1.60;1.50;;;20.60;69.20;;;;;;4983325;28;21361;-68
2024/03/05 05:52:45;;;;;;;1.73;1.45;;;20.90;69.60;;;;;;4980356;28;20197;-68
2024/03/05 05:55:15;;;;;;;3.42;1.63;;;20.80;70.30;;;;;;4983327;28;20577;-67
2024/03/05 05:57:44;;;;;;;1.80;1.52;;;20.80;69.50;;;;;;4981951;28;20209;-68
2024/03/05 06:00:22;;;;;;;1.60;1.50;;;20.90;69.60;;;;;;4982283;28;20204;-67
2024/03/05 06:02:54;;;;;;;1.65;1.40;;;20.80;69.50;;;;;;4983515;28;20243;-67
2024/03/05 06:05:23;;;;;;;1.98;1.75;;;20.80;69.50;;;;;;4984233;28;20660;-68
2024/03/05 06:07:50;;;;;;;1.92;1.38;;;20.80;69.40;;;;;;4979841;28;20203;-67
2024/03/05 06:10:18;;;;;;;1.50;1.40;;;20.90;69.80;;;;;;4980660;28;20224;-68
2024/03/05 06:12:45;;;;;;;2.15;1.95;;;20.80;69.60;;;;;;4983285;28;20205;-68
2024/03/05 06:15:12;;;;;;;1.60;1.50;;;21.00;69.70;;;;;;4983442;28;20646;-68
2024/03/05 06:17:40;;;;;;;1.90;1.55;;;20.80;69.50;;;;;;4980768;28;20290;-71
2024/03/05 06:20:10;;;;;;;25.23;12.13;;;21.30;70.40;;;;;;4983107;28;20201;-68
2024/03/05 06:22:38;;;;;;;15.55;12.05;;;20.80;66.20;;;;;;4984700;28;20213;-67
2024/03/05 06:25:07;;;;;;;20.65;14.70;;;20.40;65.20;;;;;;4983042;28;20196;-65
2024/03/05 06:27:34;;;;;;;16.95;13.35;;;20.70;64.20;;;;;;4984588;28;20236;-66
2024/03/05 06:30:01;;;;;;;20.77;15.02;;;20.50;63.40;;;;;;4975801;28;20298;-65
2024/03/05 06:32:28;;;;;;;19.20;14.00;;;20.30;63.10;;;;;;4980781;28;20672;-66
2024/03/05 06:34:54;;;;;;;20.20;15.38;;;20.40;62.90;;;;;;4982289;28;20189;-66
2024/03/05 06:37:22;;;;;;;20.77;13.43;;;20.00;62.30;;;;;;4979984;28;20354;-66
2024/03/05 06:39:50;;;;;;;19.70;17.17;;;20.10;62.70;;;;;;4983086;28;20279;-65
2024/03/05 06:42:17;;;;;;;24.25;15.38;;;20.20;62.00;;;;;;4984848;28;20576;-66
2024/03/05 06:44:47;;;;;;;21.75;16.85;;;20.10;62.50;;;;;;4987156;28;20192;-66
2024/03/05 06:47:16;;;;;;;21.48;16.15;;;20.00;62.30;;;;;;4989584;28;20239;-66
2024/03/05 06:49:43;;;;;;;26.63;18.35;;;19.90;64.50;;;;;;4987242;28;20599;-66
2024/03/05 06:57:39;;;;;;;26.77;18.17;;;19.80;68.60;;;;;;4979033;28;20556;-66
2024/03/05 07:00:15;;;;;;;22.25;18.15;;;19.90;70.00;;;;;;4980807;28;21041;-66
2024/03/05 07:02:41;;;;;;;23.90;17.10;;;19.50;69.80;;;;;;4971916;28;20196;-65
2024/03/05 07:05:09;;;;;;;23.30;17.35;;;19.40;79.30;;;;;;4992487;28;20208;-65
2024/03/05 07:07:35;;;;;;;21.35;16.63;;;19.20;81.80;;;;;;4991697;28;20280;-66
2024/03/05 07:10:13;;;;;;;23.30;16.88;;;;;;;;;;4983612;28;20221;-66
2024/03/05 07:12:40;;;;;;;20.10;16.08;;;19.00;85.70;;;;;;4980430;28;20340;-67
2024/03/05 07:15:09;;;;;;;19.02;14.45;;;19.00;91.40;;;;;;4984175;28;20204;-66
2024/03/05 07:17:36;;;;;;;16.77;13.55;;;19.00;91.20;;;;;;4984061;28;20192;-66
2024/03/05 07:20:03;;;;;;;14.07;12.57;;;19.60;91.30;;;;;;4974087;28;20692;-66
2024/03/05 07:22:30;;;;;;;16.40;12.48;;;19.30;91.00;;;;;;4983200;28;20680;-66
2024/03/05 07:24:56;;;;;;;13.15;11.23;;;19.30;91.10;;;;;;4977236;28;20536;-65
2024/03/05 07:27:26;;;;;;;15.30;10.32;;;19.50;91.30;;;;;;4985851;28;20204;-66
2024/03/05 07:29:53;;;;;;;10.65;9.38;;;19.30;91.70;;;;;;4981879;28;20212;-65
2024/03/05 07:32:19;;;;;;;11.38;9.13;;;19.80;90.80;;;;;;4978697;28;20227;-65
2024/03/05 07:34:46;;;;;;;13.05;8.57;;;19.80;90.80;;;;;;4977531;28;20200;-65
2024/03/05 07:37:12;;;;;;;9.32;7.15;;;19.90;90.80;;;;;;4981414;28;20197;-65
2024/03/05 07:39:39;;;;;;;7.43;6.63;;;19.50;90.60;;;;;;4977805;28;20231;-66
2024/03/05 07:42:06;;;;;;;6.07;5.47;;;19.60;90.70;;;;;;4983068;28;20204;-67
2024/03/05 07:44:34;;;;;;;6.50;5.65;;;19.60;90.80;;;;;;4986010;28;20247;-66
2024/03/05 07:47:01;;;;;;;6.32;5.38;;;19.70;90.90;;;;;;4980811;28;20206;-64
2024/03/05 07:49:28;;;;;;;5.85;4.68;;;20.10;91.10;;;;;;4981758;28;20193;-65
2024/03/05 07:51:55;;;;;;;5.75;5.20;;;19.70;91.00;;;;;;4979715;28;20224;-66
2024/03/05 07:54:22;;;;;;;6.03;4.60;;;19.80;91.10;;;;;;4982910;28;20200;-66
2024/03/05 07:56:48;;;;;;;5.00;4.60;;;19.70;91.10;;;;;;4985490;28;20561;-66
2024/03/05 07:59:15;;;;;;;5.25;4.75;;;19.80;91.20;;;;;;4982729;28;20295;-65
2024/03/05 08:01:45;;;;;;;5.50;4.88;;;19.80;91.30;;;;;;4973577;28;20216;-67
2024/03/05 08:04:12;;;;;;;6.95;4.43;;;20.00;91.40;;;;;;4976598;28;20211;-66
2024/03/05 08:06:38;;;;;;;7.07;5.53;;;20.30;91.70;;;;;;4983476;28;20205;-65
2024/03/05 08:09:06;;;;;;;5.57;5.07;;;20.00;91.50;;;;;;4965835;28;20219;-67
2024/03/05 08:11:34;;;;;;;5.00;4.50;;;20.10;91.60;;;;;;4983827;28;20675;-65
2024/03/05 08:14:03;;;;;;;5.60;3.75;;;20.10;91.60;;;;;;4980931;28;22121;-65
2024/03/05 08:16:33;;;;;;;4.57;4.15;;;20.00;91.50;;;;;;4985354;28;20193;-66
2024/03/05 08:19:01;;;;;;;4.43;3.78;;;20.20;91.60;;;;;;4975671;28;20309;-66
2024/03/05 08:21:28;;;;;;;5.57;5.07;;;20.40;91.80;;;;;;4983929;28;20207;-64
2024/03/05 08:23:55;;;;;;;6.70;5.68;;;20.20;91.70;;;;;;4977757;28;20196;-66
2024/03/05 08:26:23;;;;;;;4.38;4.07;;;20.20;91.70;;;;;;4965963;28;20210;-65
2024/03/05 08:28:49;;;;;;;4.95;4.47;;;20.00;91.60;;;;;;4973679;28;20300;-65
2024/03/05 08:31:16;;;;;;;4.00;3.60;;;20.30;91.70;;;;;;4982796;28;20237;-66
2024/03/05 08:33:44;;;;;;;5.47;4.97;;;20.50;91.80;;;;;;4981291;28;20506;-65
2024/03/05 08:36:12;;;;;;;3.70;3.40;;;20.00;91.60;;;;;;4983553;28;20201;-67
2024/03/05 08:38:40;;;;;;;3.10;2.85;;;20.40;91.90;;;;;;4981762;28;20208;-67
2024/03/05 08:41:07;;;;;;;3.40;2.40;;;20.30;91.80;;;;;;4974461;28;20208;-66
2024/03/05 08:43:34;;;;;;;8.95;3.70;;;20.30;91.80;;;;;;4977749;28;20227;-66
2024/03/05 08:46:02;;;;;;;3.33;3.00;;;20.90;92.20;;;;;;4980891;28;20200;-67
2024/03/05 08:48:29;;;;;;;3.60;3.30;;;20.40;91.90;;;;;;4974498;28;20771;-67
2024/03/05 08:50:57;;;;;;;3.00;2.58;;;20.40;92.10;;;;;;4983805;28;20220;-65
2024/03/05 08:53:25;;;;;;;2.80;2.50;;;20.50;91.90;;;;;;4979775;28;21226;-66
2024/03/05 08:55:53;;;;;;;3.90;2.58;;;20.40;91.90;;;;;;4980897;28;20215;-66
2024/03/05 08:58:19;;;;;;;2.90;2.63;;;20.60;92.00;;;;;;4976169;28;20212;-65
2024/03/05 09:00:46;;;;;;;2.60;2.40;;;20.50;91.90;;;;;;4983295;28;20208;-67
2024/03/05 09:03:13;;;;;;;3.15;2.85;;;20.60;91.70;;;;;;4983985;28;20259;-67
2024/03/05 09:05:39;;;;;;;2.60;2.40;;;20.50;92.10;;;;;;4989021;28;20200;-68
2024/03/05 09:08:06;;;;;;;4.57;2.42;;;20.50;92.30;;;;;;4981972;28;20199;-65
2024/03/05 09:10:34;;;;;;;3.88;2.80;;;20.60;92.20;;;;;;4983555;28;20629;-67
2024/03/05 09:13:01;;;;;;;3.03;2.83;;;20.50;92.50;;;;;;4980064;28;20208;-65
2024/03/05 09:15:28;;;;;;;3.05;2.72;;;21.00;92.90;;;;;;4980262;28;20208;-71
2024/03/05 09:17:55;;;;;;;3.50;3.10;;;20.90;92.90;;;;;;4979264;28;20197;-68
2024/03/05 09:20:23;;;;;;;4.40;2.95;;;20.70;92.80;;;;;;4968201;28;20803;-69
2024/03/05 09:22:49;;;;;;;3.03;2.72;;;20.90;92.90;;;;;;4973382;28;20216;-71
2024/03/05 09:25:17;;;;;;;3.45;2.60;;;20.60;92.90;;;;;;4986398;28;20226;-67
2024/03/05 09:27:45;;;;;;;2.72;2.53;;;20.80;92.70;;;;;;4983463;28;20208;-77
2024/03/05 09:30:14;;;;;;;3.15;2.47;;;20.70;92.80;;;;;;4975876;28;20208;-68
2024/03/05 09:32:41;;;;;;;2.88;2.33;;;21.00;93.00;;;;;;4983131;28;20224;-72
2024/03/05 09:35:09;;;;;;;2.53;2.10;;;20.80;93.00;;;;;;4976480;28;20201;-72
2024/03/05 09:37:36;;;;;;;2.78;2.58;;;20.90;93.10;;;;;;4980663;28;20201;-67
2024/03/05 09:40:06;;;;;;;3.25;2.85;;;20.90;93.10;;;;;;4978721;28;20201;-69
2024/03/05 09:42:32;;;;;;;4.38;3.28;;;20.90;93.00;;;;;;4980961;28;20225;-71
2024/03/05 09:45:05;;;;;;;3.17;2.88;;;21.20;93.30;;;;;;4981864;28;20215;-70
2024/03/05 09:47:34;;;;;;;2.88;2.50;;;21.30;93.50;;;;;;4985067;28;20751;-71
2024/03/05 09:50:04;;;;;;;4.28;2.92;;;21.40;93.20;;;;;;4982297;28;20290;-70
2024/03/05 09:52:32;;;;;;;2.58;2.22;;;21.00;93.00;;;;;;4985971;28;20235;-70
2024/03/05 09:55:00;;;;;;;3.40;3.10;;;21.20;93.20;;;;;;4983243;28;20271;-67
2024/03/05 09:57:29;;;;;;;3.10;2.60;;;21.10;93.00;;;;;;4981135;28;20319;-70
2024/03/05 09:59:56;;;;;;;2.75;2.50;;;21.10;93.00;;;;;;4983596;28;20467;-69
2024/03/05 10:02:24;;;;;;;2.23;1.90;;;21.30;93.10;;;;;;4976078;28;20196;-74
2024/03/05 10:04:54;;;;;;;2.72;2.35;;;21.40;93.10;;;;;;4984863;28;25502;-72
2024/03/05 10:07:27;;;;;;;2.53;2.20;;;21.40;93.20;;;;;;4984605;28;20206;-70
2024/03/05 10:10:04;;;;;;;3.03;2.70;;;21.30;93.20;;;;;;4975582;28;20467;-71
2024/03/05 10:12:31;;;;;;;3.17;2.40;;;21.30;93.20;;;;;;4983111;28;20499;-70
2024/03/05 10:15:11;;;;;;;2.90;2.70;;;21.40;93.30;;;;;;4975826;28;25287;-69
2024/03/05 10:17:43;;;;;;;2.70;2.50;;;21.00;93.00;;;;;;4977944;28;20475;-74
2024/03/05 10:20:10;;;;;;;2.85;2.65;;;21.70;93.40;;;;;;4979661;28;20613;-76
2024/03/05 10:22:37;;;;;;;4.30;2.53;;;21.50;93.30;;;;;;4972156;28;21965;-79
2024/03/05 10:25:14;;;;;;;3.00;2.33;;;21.50;93.30;;;;;;4973056;28;20461;-76
2024/03/05 10:27:46;;;;;;;4.90;3.03;;;21.60;93.30;;;;;;4969570;28;20470;-70
2024/03/05 10:30:22;;;;;;;3.47;2.83;;;21.90;86.50;;;;;;4974916;28;20467;-67
2024/03/05 10:32:54;;;;;;;3.47;3.17;;;21.60;85.60;;;;;;4978429;28;20591;-69
2024/03/05 10:35:22;;;;;;;5.47;3.07;;;21.80;85.50;;;;;;4981188;28;20509;-69
2024/03/05 10:37:56;;;;;;;4.50;4.03;;;21.70;85.60;;;;;;4983875;28;20455;-67
2024/03/05 10:40:24;;;;;;;14.10;3.47;;;21.70;85.50;;;;;;4982911;28;20580;-68
2024/03/05 10:42:52;;;;;;;5.83;3.57;;;21.60;85.60;;;;;;4981915;28;20982;-76
2024/03/05 10:45:21;;;;;;;4.20;3.80;;;21.60;90.90;;;;;;4974628;28;20475;-75
2024/03/05 10:47:49;;;;;;;3.50;2.90;;;21.60;90.20;;;;;;4983256;28;20471;-79
2024/03/05 10:50:19;;;;;;;5.10;3.20;;;22.10;90.30;;;;;;4981981;28;21054;-67
2024/03/05 10:52:48;;;;;;;4.53;3.10;;;21.90;90.10;;;;;;4981026;28;20483;-65
2024/03/05 10:55:17;;;;;;;3.20;2.90;;;21.80;89.50;;;;;;4982175;28;20465;-61
2024/03/05 11:00:25;;;;;;;3.23;2.93;;;21.80;89.90;;;;;;4979496;28;20485;-65
2024/03/05 11:02:55;;;;;;;3.10;2.80;;;21.90;89.30;;;;;;4983684;28;20700;-66
2024/03/05 11:05:23;;;;;;;5.23;3.90;;;22.10;89.00;;;;;;4987931;28;20975;-65
2024/03/05 11:07:50;;;;;;;4.43;4.00;;;22.00;88.40;;;;;;4985820;28;20461;-68
2024/03/05 11:10:17;;;;;;;3.77;3.00;;;21.60;87.80;;;;;;4988689;28;20832;-67
2024/03/05 11:12:43;;;;;;;2.63;2.23;;;21.60;88.40;;;;;;4991042;28;21045;-66
2024/03/05 11:15:12;;;;;;;3.77;2.73;;;21.70;88.50;;;;;;4982205;28;20552;-68
2024/03/05 11:17:40;;;;;;;3.93;3.27;;;21.70;88.20;;;;;;4987076;28;20470;-69
2024/03/05 11:20:11;;;;;;;5.83;4.00;;;21.80;88.10;;;;;;4985757;28;20552;-69
2024/03/05 11:22:43;;;;;;;4.40;3.38;;;21.90;87.70;;;;;;4987463;28;20499;-68
2024/03/05 11:25:30;;;;;;;4.00;3.30;;;21.70;87.20;;;;;;4984828;28;20211;-67
2024/03/05 11:27:57;;;;;;;3.63;3.27;;;22.00;87.50;;;;;;4985386;28;20541;-68
2024/03/05 11:30:24;;;;;;;4.20;3.40;;;22.10;87.60;;;;;;4986453;28;20613;-72
2024/03/05 11:32:52;;;;;;;4.07;3.40;;;22.30;87.80;;;;;;4983535;28;20582;-67
2024/03/05 11:35:19;;;;;;;3.27;2.97;;;21.90;87.30;;;;;;4984106;28;20474;-68
2024/03/05 11:37:48;;;;;;;4.43;3.90;;;22.00;87.50;;;;;;4985098;28;20456;-69
2024/03/05 11:40:18;;;;;;;4.77;3.20;;;22.20;87.30;;;;;;4984450;28;20465;-67
2024/03/05 11:42:46;;;;;;;3.50;3.07;;;22.10;87.30;;;;;;4984599;28;20477;-68
2024/03/05 11:45:32;;;;;;;5.20;3.63;;;22.10;87.30;;;;;;4986344;28;21878;-66
2024/03/05 11:48:02;;;;;;;3.50;2.67;;;22.30;87.30;;;;;;4983821;28;20466;-68
2024/03/05 11:50:29;;;;;;;3.43;3.07;;;22.40;87.40;;;;;;4981065;28;20501;-74
2024/03/05 11:52:57;;;;;;;10.97;5.90;;;22.00;86.90;;;;;;4982506;28;20529;-67
2024/03/05 11:55:25;;;;;;;21.87;15.30;;;22.10;86.20;;;;;;4984819;28;20554;-65
2024/03/05 11:57:56;;;;;;;33.87;18.53;;;22.00;81.00;;;;;;4981528;28;20507;-68
2024/03/05 12:00:26;;;;;;;20.50;14.50;;;21.60;79.00;;;;;;4985861;28;20465;-70
2024/03/05 12:02:53;;;;;;;13.90;9.73;;;21.70;82.00;;;;;;4983399;28;20468;-73
2024/03/05 12:05:20;;;;;;;14.00;9.80;;;21.60;82.70;;;;;;4987342;28;20463;-68
2024/03/05 12:07:59;;;;;;;8.73;7.23;;;21.80;82.90;;;;;;4987683;28;20458;-69
2024/03/05 12:10:28;;;;;;;21.83;9.20;;;21.70;82.50;;;;;;4975941;28;21077;-69
2024/03/05 12:12:55;;;;;;;13.10;8.10;;;21.70;82.80;;;;;;4986603;28;20809;-67
2024/03/05 12:15:23;;;;;;;10.10;6.30;;;21.70;83.10;;;;;;4980601;28;20466;-64
2024/03/05 12:17:50;;;;;;;7.80;6.33;;;21.70;83.00;;;;;;4985712;28;20610;-64
2024/03/05 12:20:20;;;;;;;6.13;5.20;;;21.70;83.20;;;;;;4986715;28;21978;-65
2024/03/05 12:22:51;;;;;;;6.70;5.67;;;21.70;82.90;;;;;;4988674;28;20201;-64
2024/03/05 12:25:20;;;;;;;13.03;6.20;;;21.80;84.30;;;;;;4986828;28;21029;-63
2024/03/05 12:27:47;;;;;;;6.70;5.23;;;22.30;84.30;;;;;;4984297;28;20462;-63
2024/03/05 12:30:15;;;;;;;10.60;5.63;;;21.80;85.00;;;;;;4989440;28;20505;-63
2024/03/05 12:32:44;;;;;;;5.30;4.80;;;21.90;84.50;;;;;;4987749;28;20476;-66
2024/03/05 12:35:12;;;;;;;9.90;5.43;;;21.90;84.70;;;;;;4987035;28;20467;-63
2024/03/05 12:37:39;;;;;;;8.67;6.10;;;21.70;84.60;;;;;;4992583;28;20462;-70
2024/03/05 12:40:08;;;;;;;8.37;6.83;;;21.80;85.30;;;;;;4979352;28;20462;-67
2024/03/05 12:42:37;;;;;;;8.90;5.17;;;21.80;85.10;;;;;;4985570;28;20460;-66
2024/03/05 12:45:05;;;;;;;6.10;4.10;;;21.80;85.60;;;;;;4982763;28;20902;-66
2024/03/05 12:47:32;;;;;;;8.17;5.37;;;21.90;86.10;;;;;;4975126;28;20825;-64
2024/03/05 12:50:01;;;;;;;6.15;5.55;;;22.00;87.30;;;;;;4978335;28;20490;-65
2024/03/05 12:52:28;;;;;;;6.30;5.20;;;21.90;87.20;;;;;;4981178;28;20227;-66
2024/03/05 12:54:59;;;;;;;5.85;4.47;;;21.80;86.90;;;;;;4975638;28;21030;-66
2024/03/05 12:57:27;;;;;;;6.03;4.83;;;21.90;87.60;;;;;;4980931;28;20213;-68